Bookmark and Share
Track history (hours):
 

Marfret Guyane

Last reported at 2014-Apr-17 18:34 UTC. Time now 2014-Apr-18 10:43 UTC.
Position N 46°42' W 009°52'.

Length 170 m; draft 9 m.

Type: Ship (hazmat cat A). MMSI: 226324000.

NotesDate/timePositionNaut miles runAvg speedWind from/ knotsBaromVisibWave heightAir tempDewpointWater temp
2014-Apr-17 18:34N 46°42' W 009°52'1919.0
2014-Apr-17 17:33N 46°54' W 009°30'5718.9
2014-Apr-17 14:33N 47°29' W 008°25'3819.0
2014-Apr-17 12:33N 47°54' W 007°42'2019.5
2014-Apr-17 11:33N 48°06' W 007°19'2019.8
2014-Apr-17 10:33N 48°18' W 006°56'2019.9
2014-Apr-17 09:33N 48°31' W 006°32'3919.4
2014-Apr-17 07:33N 48°55' W 005°47'13018.6
2014-Apr-17 00:33N 49°58' W 002°52'1919.3
2014-Apr-16 23:33N 50°03' W 002°23'1717.1
2014-Apr-16 22:33N 50°04' W 001°57'1615.9
2014-Apr-16 21:33N 49°57' W 001°34'1515.1
2014-Apr-16 20:33N 49°51' W 001°13'1515.2
2014-Apr-16 19:33N 49°46' W 000°50'1716.6
2014-Apr-16 18:33N 49°38' W 000°28'1717.4
2014-Apr-16 17:33N 49°30' W 000°04'9 9.0
2014-Apr-16 16:32N 49°29' E 000°10'0 0.0
2014-Apr-16 15:32N 49°29' E 000°10'0 0.0
2014-Apr-16 14:32N 49°29' E 000°10'0 0.0
2014-Apr-16 13:32N 49°29' E 000°10'0 0.0
2014-Apr-16 12:32N 49°29' E 000°10'0 0.0
2014-Apr-16 11:32N 49°29' E 000°10'0 0.0
2014-Apr-16 10:32N 49°29' E 000°10'0 0.0
2014-Apr-16 09:32N 49°29' E 000°10'0 0.0
2014-Apr-16 08:32N 49°29' E 000°10'0 0.0
2014-Apr-16 07:32N 49°29' E 000°10'0 0.0
2014-Apr-16 06:32N 49°29' E 000°10'0 0.0
2014-Apr-16 05:32N 49°29' E 000°10'0 0.0
2014-Apr-16 04:32N 49°29' E 000°10'0 0.0
2014-Apr-16 03:26N 49°29' E 000°10'0 0.0
2014-Apr-16 02:32N 49°29' E 000°10'0 0.0
2014-Apr-16 01:32N 49°29' E 000°10'0 0.0
2014-Apr-16 00:32N 49°29' E 000°10'0 0.0
2014-Apr-15 23:32N 49°29' E 000°10'0 0.0
2014-Apr-15 22:32N 49°29' E 000°10'0 0.0
2014-Apr-15 21:32N 49°29' E 000°10'0 0.0
2014-Apr-15 20:32N 49°29' E 000°10'0 0.0
2014-Apr-15 19:31N 49°29' E 000°10'0 0.0
2014-Apr-15 18:32N 49°29' E 000°10'0 0.0
2014-Apr-15 17:32N 49°29' E 000°10'0 0.0
2014-Apr-15 16:33N 49°29' E 000°10'0 0.0
2014-Apr-15 15:24N 49°29' E 000°10'0 0.0
2014-Apr-15 14:33N 49°29' E 000°10'0 0.0
2014-Apr-15 10:32N 49°29' E 000°10'0 0.0
2014-Apr-15 09:34N 49°29' E 000°10'6 6.4
2014-Apr-15 08:34N 49°30' E 000°00'1010.1
2014-Apr-15 07:34N 49°26' E 000°15'9 8.8
2014-Apr-15 06:34N 49°28' E 000°28'8 7.7
2014-Apr-15 05:34N 49°27' E 000°40'1 0.0
2014-Apr-13 09:33N 49°27' E 000°39'8 8.5
2014-Apr-13 08:34N 49°27' E 000°26'1312.8
2014-Apr-13 07:33N 49°26' E 000°06'1110.6
2014-Apr-13 06:33N 49°31' W 000°08'4217.3
2014-Apr-13 04:06N 50°08' E 000°24'1017.8
2014-Apr-13 03:33N 50°16' E 000°32'1817.8
2014-Apr-13 02:33N 50°34' E 000°35'1918.8
2014-Apr-13 01:33N 50°45' E 000°59'2118.4
2014-Apr-13 00:25N 50°59' E 001°24'1416.8
2014-Apr-12 23:33N 51°10' E 001°38'1414.4
2014-Apr-12 22:34N 51°24' E 001°33'1212.0
2014-Apr-12 21:34N 51°29' E 001°15'1514.7
2014-Apr-12 20:34N 51°29' E 000°51'1514.5
2014-Apr-12 19:33N 51°29' E 000°28'5 5.1
2014-Apr-12 18:33N 51°27' E 000°20'0 0.0
2014-Apr-12 17:34N 51°27' E 000°20'0 0.0
2014-Apr-12 16:33N 51°27' E 000°20'0 0.0
2014-Apr-12 15:34N 51°27' E 000°20'0 0.0
2014-Apr-12 14:34N 51°27' E 000°20'0 0.0
2014-Apr-12 13:33N 51°27' E 000°20'0 0.0
2014-Apr-12 12:33N 51°27' E 000°20'0 0.0
2014-Apr-12 11:34N 51°27' E 000°20'0 0.0
2014-Apr-12 10:34N 51°27' E 000°20'0 0.1
2014-Apr-12 09:33N 51°27' E 000°20'7 7.1
2014-Apr-12 08:33N 51°30' E 000°30'1313.2
2014-Apr-12 07:33N 51°29' E 000°52'1515.1
2014-Apr-12 06:33N 51°29' E 001°16'8 7.9
2014-Apr-12 05:34N 51°25' E 001°27'0 0.1
2014-Apr-12 04:33N 51°25' E 001°27'0 0.0
2014-Apr-12 03:33N 51°25' E 001°27'0 0.0
2014-Apr-12 02:33N 51°25' E 001°27'0 0.0
2014-Apr-12 01:34N 51°25' E 001°27'0 0.0
2014-Apr-12 00:33N 51°25' E 001°27'0 0.1
2014-Apr-11 23:33N 51°25' E 001°27'0 0.1
2014-Apr-11 22:33N 51°25' E 001°27'0 0.0
2014-Apr-11 21:34N 51°25' E 001°27'0 0.0
2014-Apr-11 20:34N 51°25' E 001°27'0 0.1
2014-Apr-11 19:33N 51°25' E 001°27'0 0.1
2014-Apr-11 18:33N 51°25' E 001°27'1 1.0
2014-Apr-11 17:33N 51°25' E 001°28'1414.0
2014-Apr-11 16:34N 51°31' E 001°48'2017.3
2014-Apr-11 15:23N 51°42' E 002°16'1617.5
2014-Apr-11 14:30N 51°53' E 002°34'2015.8
2014-Apr-11 13:13N 52°02' E 003°03'1116.9
2014-Apr-11 12:34N 52°02' E 003°22'1616.1
2014-Apr-11 11:33N 52°04' E 003°48'1111.1
2014-Apr-11 10:33N 51°59' E 004°04'10 9.8
2014-Apr-11 09:30N 51°54' E 004°19'3 3.5
2014-Apr-11 08:33N 51°53' E 004°24'0 0.0
2014-Apr-11 07:33N 51°53' E 004°24'0 0.0
2014-Apr-11 06:33N 51°53' E 004°24'0 0.0
2014-Apr-11 05:33N 51°53' E 004°24'0 0.0
2014-Apr-11 04:33N 51°53' E 004°24'0 0.0
2014-Apr-11 03:33N 51°53' E 004°24'0 0.0
2014-Apr-11 02:33N 51°53' E 004°24'0 0.0
2014-Apr-11 01:33N 51°53' E 004°24'0 0.0
2014-Apr-11 00:30N 51°53' E 004°24'0 0.0
2014-Apr-10 23:33N 51°53' E 004°24'0 0.0
2014-Apr-10 22:33N 51°53' E 004°24'0 0.0
2014-Apr-10 21:33N 51°53' E 004°24'0 0.0
2014-Apr-10 20:33N 51°53' E 004°24'0 0.0
2014-Apr-10 19:30N 51°53' E 004°24'0 0.0
2014-Apr-10 18:33N 51°53' E 004°24'0 0.0
2014-Apr-10 17:33N 51°53' E 004°24'0 0.0
2014-Apr-10 16:33N 51°53' E 004°24'0 0.0
2014-Apr-10 15:33N 51°53' E 004°24'0 0.0
2014-Apr-10 14:33N 51°53' E 004°24'0 0.0
2014-Apr-10 13:33N 51°53' E 004°24'0 0.0
2014-Apr-10 12:33N 51°53' E 004°24'0 0.0
2014-Apr-10 11:33N 51°53' E 004°24'0 0.0
2014-Apr-10 10:33N 51°53' E 004°24'1 0.5
2014-Apr-10 09:34N 51°53' E 004°24'7 7.2
2014-Apr-10 08:34N 51°56' E 004°14'1313.1
2014-Apr-10 07:33N 51°60' E 003°53'1111.5
2014-Apr-10 06:33N 51°57' E 003°35'3617.6
2014-Apr-10 04:29N 51°46' E 002°39'1617.7
2014-Apr-10 03:33N 51°34' E 002°21'1817.5
2014-Apr-10 02:33N 51°19' E 002°07'1716.7
2014-Apr-10 01:34N 51°08' E 001°47'1716.9
2014-Apr-10 00:34N 50°55' E 001°29'1716.8
2014-Apr-09 23:33N 50°39' E 001°19'1717.0
2014-Apr-09 22:33N 50°29' E 000°57'2016.9
2014-Apr-09 21:22N 50°23' E 000°27'1416.9
2014-Apr-09 20:33N 50°19' E 000°06'1717.2
2014-Apr-09 19:33N 50°16' W 000°20'1817.7
2014-Apr-09 18:33N 50°12' W 000°47'1818.3
2014-Apr-09 17:33N 50°07' W 001°14'1918.9
2014-Apr-09 16:33N 50°02' W 001°43'  

Dump ship's entire track history

sailing weather and tide predictions

Marfret Guyane — FNMV — position and weather